Latest Coastal Weather Observations for Cerberus

IDV60701

Issued at 2:11 am EDT Sunday 21 December 2014 (issued every 10 minutes, with the page automatically refreshed every 10 minutes)

About coastal observations | Map of coastal stations | Coastal observations for VIC | Marine services | Other Formats
Station Details ID: 086361 Name: CERBERUS Lat: -38.36 Lon: 145.18 Height: 12.69 m
Data from the previous 72 hours. | See also: Recent months at Cerberus
Date/Time
EDT
Temp

°C
Wind Pressure Rain
since 9am
mm
Weather Cloud Vis
km
Sea
Height
m
Swell
Dir
 
Speed
knots
Gust
knots
hPa Trend Height
m
Period
s
Dir
21/02:00am 10.4 CALM 0 0 1015.9 - 0.0 - - - - - - -
21/01:30am 10.7 CALM 0 0 1016.3 - 0.0 - - - - - - -
21/01:00am 11.2 CALM 0 0 1016.6 - 0.0 - - - - - - -
21/12:30am 11.2 CALM 0 0 1017.1 - 0.0 - - - - - - -
21/12:00am 11.3 S 1 4 1017.4 - 0.0 - - - - - - -
 
Date/Time
EDT
Temp

°C
Wind Pressure Rain
since 9am
mm
Weather Cloud Vis
km
Sea
Height
m
Swell
Dir
 
Speed
knots
Gust
knots
hPa Trend Height
m
Period
s
Dir
20/11:30pm 12.0 CALM 0 0 1017.6 - 0.0 - - - - - - -
20/11:00pm 12.6 CALM 0 0 1017.7 - 0.0 - - - - - - -
20/10:30pm 13.3 CALM 0 0 1017.9 - 0.0 - - - - - - -
20/10:00pm 13.6 CALM 0 1 1017.9 - 0.0 - - - - - - -
20/09:30pm 14.7 S 2 2 1017.8 - 0.0 - - - - - - -
20/09:00pm 15.0 S 3 4 1017.7 - 0.0 - - - - - - -
20/08:30pm 15.8 S 4 5 1017.7 - 0.0 - - - - - - -
20/08:00pm 16.6 SSW 5 8 1017.7 - 0.0 - - - - - - -
20/07:30pm 17.2 SSW 6 9 1017.4 - 0.0 - - - - - - -
20/07:00pm 17.4 SSW 7 11 1017.1 - 0.0 - - - - - - -
20/06:30pm 17.7 SSW 8 12 1017.0 - 0.0 - - - - - - -
20/06:00pm 18.0 SSW 9 13 1016.9 - 0.0 - - - - - - -
20/05:30pm 18.5 SSW 9 13 1017.1 - 0.0 - - - - - - -
20/05:00pm 18.1 SSW 10 13 1017.2 - 0.0 - - - - - - -
20/04:30pm 18.4 SSW 10 14 1017.3 - 0.0 - - - - - - -
20/04:00pm 18.8 SSW 10 14 1017.6 - 0.0 - - - - - - -
20/03:30pm 18.8 SSW 9 13 1017.9 - 0.0 - - - - - - -
20/03:00pm 18.5 SSW 10 15 1018.2 - 0.0 - - - - - - -
20/02:30pm 18.8 SSW 12 17 1018.4 - 0.0 - - - - - - -
20/02:00pm 18.8 SSW 11 16 1018.4 - 0.0 - - - - - - -
20/01:30pm 19.2 SSW 9 14 1018.4 - 0.0 - - - - - - -
20/01:00pm 18.3 SSW 11 16 1018.7 - 0.0 - - - - - - -
20/12:30pm 17.8 SW 8 13 1018.8 - 0.0 - - - - - - -
20/12:00pm 19.0 SSW 6 10 1018.7 - 0.0 - - - - - - -
20/11:30am 19.1 W 8 12 1018.8 - 0.0 - - - - - - -
20/11:00am 17.9 WNW 6 10 1018.9 - 0.0 - - - - - - -
20/10:30am 18.7 WSW 7 12 1018.9 - 0.0 - - - - - - -
20/10:00am 17.4 W 7 10 1019.0 - 0.0 - - - - - - -
20/09:30am 16.9 W 4 8 1018.9 - 0.0 - - - - - - -
20/09:00am 16.7 WSW 5 10 1018.7 - 0.0 - - - - - - -
20/08:30am 16.8 W 6 9 1018.5 - 0.0 - - - - - - -
20/08:00am 15.9 W 5 7 1018.3 - 0.0 - - - - - - -
20/07:30am 14.2 WNW 3 5 1018.1 - 0.0 - - - - - - -
20/07:00am 12.7 WNW 2 3 1017.9 - 0.0 - - - - - - -
20/06:30am 11.7 WNW 2 3 1017.6 - 0.0 - - - - - - -
20/06:00am 12.1 NW 2 3 1017.5 - 0.0 - - - - - - -
20/05:30am 11.9 NW 1 2 1017.5 - 0.0 - - - - - - -
20/05:00am 11.2 NW 1 3 1017.4 - 0.0 - - - - - - -
20/04:30am 11.2 NW 2 2 1017.2 - 0.0 - - - - - - -
20/04:00am 11.1 NW 2 3 1017.4 - 0.0 - - - - - - -
20/03:30am 10.4 NW 1 1 1017.5 - 0.0 - - - - - - -
20/03:00am 10.4 NW 4 5 1017.6 - 0.0 - - - - - - -
20/02:30am 10.3 NW 4 4 1017.9 - 0.0 - - - - - - -
20/02:00am 10.3 NW 3 4 1018.1 - 0.0 - - - - - - -
20/01:30am 10.6 NNW 4 5 1018.4 - 0.0 - - - - - - -
20/01:00am 10.6 NW 4 5 1018.6 - 0.0 - - - - - - -
20/12:30am 11.4 NW 4 4 1018.9 - 0.0 - - - - - - -
20/12:00am 12.4 WNW 2 4 1019.2 - 0.0 - - - - - - -
 
Date/Time
EDT
Temp

°C
Wind Pressure Rain
since 9am
mm
Weather Cloud Vis
km
Sea
Height
m
Swell
Dir
 
Speed
knots
Gust
knots
hPa Trend Height
m
Period
s
Dir
19/11:30pm 13.2 WSW 3 7 1019.5 - 0.0 - - - - - - -
19/11:00pm 14.1 SW 6 13 1019.7 - 0.0 - - - - - - -
19/10:30pm 14.6 SW 6 11 1019.7 - 0.0 - - - - - - -
19/10:00pm 14.5 SSW 6 9 1019.6 - 0.0 - - - - - - -
19/09:30pm 14.6 SSW 7 13 1019.5 - 0.0 - - - - - - -
19/09:00pm 14.2 SSW 5 9 1019.5 - 0.0 - - - - - - -
19/08:30pm 14.5 SSW 6 12 1019.4 - 0.0 - - - - - - -
19/08:00pm 15.3 SSW 9 16 1019.2 - 0.0 - - - - - - -
19/07:30pm 15.7 SSW 9 16 1019.0 - 0.0 - - - - - - -
19/07:00pm 16.0 SSW 10 14 1018.6 - 0.0 - - - - - - -
19/06:30pm 16.5 SSW 9 15 1018.2 - 0.0 - - - - - - -
19/06:00pm 16.9 SSW 10 14 1018.1 - 0.0 - - - - - - -
19/05:30pm 16.9 SSW 11 15 1018.1 - 0.0 - - - - - - -
19/05:00pm 16.7 SSW 12 17 1017.9 - 0.0 - - - - - - -
19/04:30pm 17.1 SSW 9 14 1017.9 - 0.0 - - - - - - -
19/04:00pm 17.2 SSW 11 16 1017.8 - 0.0 - - - - - - -
19/03:30pm 17.4 SSW 11 15 1017.7 - 0.0 - - - - - - -
19/03:00pm 17.0 SSW 11 16 1017.6 - 0.0 - - - - - - -
19/02:30pm 17.2 SSW 11 15 1017.6 - 0.0 - - - - - - -
19/02:00pm 17.3 SSW 8 13 1017.6 - 0.0 - - - - - - -
19/01:30pm 16.8 SSW 11 15 1017.5 - 0.0 - - - - - - -
19/01:00pm 17.1 SW 9 15 1017.7 - 0.0 - - - - - - -
19/12:30pm 15.6 SW 13 19 1017.7 - 0.0 - - - - - - -
19/12:00pm 16.6 SSW 8 13 1017.6 - 0.0 - - - - - - -
19/11:30am 14.8 SW 4 7 1017.5 - 0.0 - - - - - - -
19/11:00am 14.5 SW 11 17 1017.2 - 0.0 - - - - - - -
19/10:30am 16.0 SSW 10 13 1016.9 - 0.0 - - - - - - -
19/10:00am 15.0 SSW 8 13 1016.6 - 0.0 - - - - - - -
19/09:30am 15.6 SW 10 14 1016.3 - 0.0 - - - - - - -
19/09:00am 15.0 SW 7 11 1016.2 - 8.6 - - - - - - -
19/08:30am 14.7 SW 9 14 1015.8 - 8.6 - - - - - - -
19/08:00am 13.4 SW 5 9 1015.6 - 8.6 - - - - - - -
19/07:30am 13.2 W 4 5 1015.2 - 8.6 - - - - - - -
19/07:00am 12.2 WSW 5 8 1014.8 - 8.6 - - - - - - -
19/06:30am 10.9 WNW 4 5 1014.5 - 8.4 - - - - - - -
19/06:00am 11.1 WNW 5 8 1014.3 - 8.4 Recent precip. - - - - - -
19/05:30am 11.2 W 3 4 1014.0 - 8.4 - - - - - - -
19/05:00am 11.4 WSW 8 18 1013.8 - 8.2 - - - - - - -
19/04:30am 11.6 WNW 6 9 1013.4 - 8.2 - - - - - - -
19/04:00am 11.4 WNW 5 9 1013.0 - 8.2 - - - - - - -
19/03:30am 11.2 W 6 9 1013.0 - 8.0 - - - - - - -
19/03:00am 10.4 NW 4 5 1012.8 - 6.2 - - - - - - -
19/02:30am 11.0 WNW 4 6 1012.9 - 6.2 - - - - - - -
19/02:00am 11.3 WNW 4 6 1012.9 - 6.2 - - - - - - -
19/01:30am 11.8 W 8 13 1013.0 - 6.0 - - - - - - -
19/01:00am 12.3 WNW 4 6 1012.8 - 5.4 - - - - - - -
19/12:30am 12.5 NW 5 7 1012.9 - 5.4 - - - - - - -
19/12:00am 11.9 WNW 4 6 1012.9 - 5.4 - - - - - - -
 
Date/Time
EDT
Temp

°C
Wind Pressure Rain
since 9am
mm
Weather Cloud Vis
km
Sea
Height
m
Swell
Dir
 
Speed
knots
Gust
knots
hPa Trend Height
m
Period
s
Dir
18/11:30pm 11.4 NNW 3 4 1012.6 - 5.4 - - - - - - -
18/11:00pm 11.6 NW 4 5 1012.6 - 5.4 - - - - - - -
18/10:30pm 11.9 WNW 3 4 1012.3 - 5.4 - - - - - - -
18/10:00pm 13.1 W 4 7 1012.2 - 5.4 - - - - - - -
18/09:30pm 13.1 W 5 8 1011.8 - 5.4 - - - - - - -
18/09:00pm 13.6 W 5 9 1011.5 - 5.4 - - - - - - -
18/08:30pm 14.3 W 4 8 1011.2 - 5.4 - - - - - - -
18/08:00pm 15.2 W 6 9 1010.8 - 5.4 - - - - - - -
18/07:30pm 15.5 W 6 8 1010.3 - 5.4 - - - - - - -
18/07:00pm 15.3 W 5 8 1009.8 - 5.4 - - - - - - -
18/06:30pm 15.5 WSW 8 11 1009.3 - 5.4 - - - - - - -
18/06:00pm 15.0 W 6 9 1008.9 - 5.4 Recent precip. - - - - - -
18/05:30pm 13.6 W 3 6 1008.3 - 5.2 - - - - - - -
18/05:00pm 12.9 W 9 15 1008.5 - 4.4 - - - - - - -
18/04:30pm 13.1 W 8 12 1008.0 - 2.4 - - - - - - -
18/04:00pm 13.5 WSW 14 24 1007.5 - 1.8 - - - - - - -
18/03:46pm 13.8 SW 17 28 1007.3 - 1.6 - - - - - - -
18/03:30pm 16.6 SW 13 19 1006.4 - 0.2 - - - - - - -
18/03:00pm 21.1 WSW 13 18 1005.5 - 0.0 - - - - - - -
18/02:30pm 20.8 W 11 18 1005.4 - 0.0 - - - - - - -
18/02:00pm 22.1 W 14 21 1005.3 - 0.0 - - - - - - -
18/01:30pm 21.0 W 10 17 1005.6 - 0.0 - - - - - - -
18/01:00pm 20.4 W 10 16 1005.6 - 0.0 - - - - - - -
18/12:30pm 20.3 W 12 20 1005.7 - 0.0 - - - - - - -
18/12:00pm 19.3 W 12 19 1005.9 - 0.0 - - - - - - -
18/11:30am 19.2 W 12 17 1005.8 - 0.0 - - - - - - -
18/11:00am 19.1 W 14 21 1005.4 - 0.0 - - - - - - -
18/10:30am 19.7 WNW 11 17 1005.4 - 0.0 - - - - - - -
18/10:00am 19.3 WNW 9 14 1005.3 - 0.0 - - - - - - -
18/09:30am 18.5 WNW 9 16 1005.4 - 0.0 - - - - - - -
18/09:00am 18.0 NW 8 12 1005.3 - 0.0 - - - - - - -
18/08:30am 16.8 NW 8 12 1005.3 - 0.0 - - - - - - -
18/08:00am 14.9 N 1 5 1005.3 - 0.0 - - - - - - -
18/07:30am 11.7 NNE 2 3 1005.1 - 0.0 - - - - - - -
18/07:00am 10.6 N 2 4 1005.0 - 0.0 - - - - - - -
18/06:30am 9.7 NNE 3 5 1005.0 - 0.0 - - - - - - -
18/06:00am 8.0 E 2 4 1005.1 - 0.0 - - - - - - -
18/05:30am 8.1 E 1 1 1005.1 - 0.0 - - - - - - -
18/05:00am 8.0 E 1 1 1005.2 - 0.0 - - - - - - -
18/04:30am 7.7 CALM 0 3 1005.2 - 0.0 - - - - - - -
18/04:00am 7.8 CALM 0 0 1005.3 - 0.0 - - - - - - -
18/03:30am 8.7 CALM 0 0 1005.3 - 0.0 - - - - - - -
18/03:00am 9.5 CALM 0 0 1005.6 - 0.0 - - - - - - -
18/02:30am 11.4 E 2 4 1005.7 - 0.0 - - - - - - -

Other Formats:

Comma delimited format used in spreadsheet applications
http://www.bom.gov.au/fwo/IDV60701/IDV60701.94898.axf

JavaScript Object Notation format (JSON) in row-major order
http://www.bom.gov.au/fwo/IDV60701/IDV60701.94898.json